Time;durP1;ratioP1;P1;durP2;ratioP2;P2;SDS_P1;SDS_P2;PMS_P1;PMS_P2;Temp;Humidity;BMP_temperature;BMP_pressure;BME280_temperature;BME280_humidity;BME280_pressure;Samples;Min_cycle;Max_cycle;Signal;HPM_P1;HPM_P2
2021/10/19 00:00:11;;;;;;;;;;;;;;;;;;5037383;28;20411;-82
2021/10/19 00:02:36;;;;;;;;;;;;;;;;;;5053664;28;19924;-83
2021/10/19 00:05:02;;;;;;;;;;;;;;;;;;5066089;28;19920;-82
2021/10/19 00:07:27;;;;;;;;;;;;;;;;;;5069148;28;19916;-82
2021/10/19 00:09:53;;;;;;;;;;;;;;;;;;5054283;28;20366;-82
2021/10/19 00:12:18;;;;;;;;;;;;;;;;;;5053445;28;20373;-82
2021/10/19 00:14:43;;;;;;;;;;;;;;;;;;5054280;28;19916;-83
2021/10/19 00:17:09;;;;;;;;;;;;;;;;;;5060698;28;19986;-83
2021/10/19 00:19:34;;;;;;;;;;;;;;;;;;5053883;28;19970;-83
2021/10/19 00:21:59;;;;;;;;;;;;;;;;;;5054677;28;20370;-83
2021/10/19 00:24:25;;;;;;;;;;;;;;;;;;5068732;28;19942;-83
2021/10/19 00:26:50;;;;;;;;;;;;;;;;;;5053474;28;19916;-83
2021/10/19 00:29:15;;;;;;;;;;;;;;;;;;5073940;28;19920;-83
2021/10/19 00:31:41;;;;;;;;;;;;;;;;;;5070459;28;19917;-82
2021/10/19 00:34:06;;;;;;;;;;;;;;;;;;5045490;28;20293;-82
2021/10/19 00:36:31;;;;;;;;;;;;;;;;;;5039700;28;19966;-82
2021/10/19 00:38:57;;;;;;;;;;;;;;;;;;5054279;28;19938;-83
2021/10/19 00:41:23;;;;;;;;;;;;;;;;;;5053678;28;19913;-83
2021/10/19 00:43:49;;;;;;;;;;;;;;;;;;5087555;28;19916;-83
2021/10/19 00:46:14;;;;;;;;;;;;;;;;;;5062030;28;19999;-83
2021/10/19 00:48:40;;;;;;;;;;;;;;;;;;5061849;28;20601;-83
2021/10/19 00:51:06;;;;;;;;;;;;;;;;;;5053301;28;19932;-83
2021/10/19 00:53:32;;;;;;;;;;;;;;;;;;5054226;28;20445;-83
2021/10/19 00:55:57;;;;;;;;;;;;;;;;;;5061105;28;19995;-83
2021/10/19 00:58:23;;;;;;;;;;;;;;;;;;5058341;28;19924;-82
2021/10/19 01:00:48;;;;;;;;;;;;;;;;;;5054012;28;20321;-82
2021/10/19 01:03:13;;;;;;;;;;;;;;;;;;5053297;28;19916;-82
2021/10/19 01:05:39;;;;;;;;;;;;;;;;;;5041356;28;19917;-83
2021/10/19 01:08:04;;;;;;;;;;;;;;;;;;5053863;28;19919;-83
2021/10/19 01:10:29;;;;;;;;;;;;;;;;;;5054424;28;19969;-83
2021/10/19 01:12:56;;;;;;;;;;;;;;;;;;5055316;28;19928;-83
2021/10/19 01:15:21;;;;;;;;;;;;;;;;;;5056676;28;19920;-83
2021/10/19 01:17:47;;;;;;;;;;;;;;;;;;5064396;28;20031;-83
2021/10/19 01:20:23;;;;;;;;;;;;;;;;;;5040510;28;20402;-83
2021/10/19 01:22:48;;;;;;;;;;;;;;;;;;5076661;28;20373;-83
2021/10/19 01:25:18;;;;;;;;;;;;;;;;;;5056093;28;19916;-84
2021/10/19 01:27:44;;;;;;;;;;;;;;;;;;5057352;28;19959;-84
2021/10/19 01:30:09;;;;;;;;;;;;;;;;;;5069453;28;19916;-84
2021/10/19 01:32:35;;;;;;;;;;;;;;;;;;5077639;28;19918;-83
2021/10/19 01:35:00;;;;;;;;;;;;;;;;;;5076398;28;19920;-83
2021/10/19 01:37:25;;;;;;;;;;;;;;;;;;5041815;28;20015;-84
2021/10/19 01:39:51;;;;;;;;;;;;;;;;;;5056859;28;19923;-84
2021/10/19 01:42:16;;;;;;;;;;;;;;;;;;5049688;28;19955;-84
2021/10/19 01:44:41;;;;;;;;;;;;;;;;;;5041742;28;19920;-84
2021/10/19 01:47:08;;;;;;;;;;;;;;;;;;5072531;28;19923;-83
2021/10/19 01:49:33;;;;;;;;;;;;;;;;;;5056134;28;19942;-84
2021/10/19 01:51:58;;;;;;;;;;;;;;;;;;5063243;28;19918;-84
2021/10/19 01:54:24;;;;;;;;;;;;;;;;;;5055889;28;19923;-85
2021/10/19 01:56:50;;;;;;;;;;;;;;;;;;5072807;28;19924;-84
2021/10/19 01:59:15;;;;;;;;;;;;;;;;;;5068052;28;19925;-84
2021/10/19 02:01:41;;;;;;;;;;;;;;;;;;5056097;28;19924;-84
2021/10/19 02:04:07;;;;;;;;;;;;;;;;;;5057476;28;19916;-84
2021/10/19 02:06:33;;;;;;;;;;;;;;;;;;5039862;28;19923;-84
2021/10/19 02:08:58;;;;;;;;;;;;;;;;;;5056161;28;20374;-84
2021/10/19 02:11:25;;;;;;;;;;;;;;;;;;5065694;28;19986;-84
2021/10/19 02:13:50;;;;;;;;;;;;;;;;;;5074420;28;19924;-84
2021/10/19 02:16:15;;;;;;;;;;;;;;;;;;5072488;28;20312;-84
2021/10/19 02:18:42;;;;;;;;;;;;;;;;;;5064094;28;19956;-84
2021/10/19 02:21:08;;;;;;;;;;;;;;;;;;5073286;28;19912;-84
2021/10/19 02:23:33;;;;;;;;;;;;;;;;;;5056018;28;19917;-84
2021/10/19 02:26:00;;;;;;;;;;;;;;;;;;5071589;28;19919;-84
2021/10/19 02:28:25;;;;;;;;;;;;;;;;;;5055758;28;20371;-83
2021/10/19 02:30:52;;;;;;;;;;;;;;;;;;5068335;28;19916;-84
2021/10/19 02:33:19;;;;;;;;;;;;;;;;;;5039745;28;19956;-85
2021/10/19 02:35:45;;;;;;;;;;;;;;;;;;5072947;28;19923;-84
2021/10/19 02:38:10;;;;;;;;;;;;;;;;;;5075767;28;20099;-84
2021/10/19 02:40:35;;;;;;;;;;;;;;;;;;5055814;28;20298;-84
2021/10/19 02:43:01;;;;;;;;;;;;;;;;;;5055656;28;19916;-84
2021/10/19 02:45:26;;;;;;;;;;;;;;;;;;5050355;28;19920;-84
2021/10/19 02:47:52;;;;;;;;;;;;;;;;;;5055337;28;20006;-84
2021/10/19 02:50:18;;;;;;;;;;;;;;;;;;5055892;28;19916;-85
2021/10/19 02:52:44;;;;;;;;;;;;;;;;;;5060481;28;19919;-85
2021/10/19 02:55:10;;;;;;;;;;;;;;;;;;5071036;28;19956;-84
2021/10/19 02:57:35;;;;;;;;;;;;;;;;;;5055426;28;20013;-85
2021/10/19 03:00:02;;;;;;;;;;;;;;;;;;5064696;28;19962;-83
2021/10/19 03:02:28;;;;;;;;;;;;;;;;;;5075647;28;19955;-84
2021/10/19 03:04:53;;;;;;;;;;;;;;;;;;5055025;28;19952;-84
2021/10/19 03:07:19;;;;;;;;;;;;;;;;;;5072157;28;20286;-84
2021/10/19 03:09:44;;;;;;;;;;;;;;;;;;5055225;28;19996;-84
2021/10/19 03:12:09;;;;;;;;;;;;;;;;;;5071421;28;19939;-84
2021/10/19 03:14:35;;;;;;;;;;;;;;;;;;5066166;28;19961;-84
2021/10/19 03:17:00;;;;;;;;;;;;;;;;;;5054922;28;19997;-85
2021/10/19 03:19:26;;;;;;;;;;;;;;;;;;5054415;28;19998;-85
2021/10/19 03:21:51;;;;;;;;;;;;;;;;;;5042045;28;19924;-85
2021/10/19 03:24:17;;;;;;;;;;;;;;;;;;5053464;28;20262;-85
2021/10/19 03:26:42;;;;;;;;;;;;;;;;;;5074598;28;19916;-85
2021/10/19 03:29:08;;;;;;;;;;;;;;;;;;5052634;28;20366;-85
2021/10/19 03:31:35;;;;;;;;;;;;;;;;;;5071479;28;19913;-86
2021/10/19 03:34:03;;;;;;;;;;;;;;;;;;5038680;28;20385;-86
2021/10/19 03:36:29;;;;;;;;;;;;;;;;;;5070307;28;20270;-85
2021/10/19 03:38:56;;;;;;;;;;;;;;;;;;5054755;28;19916;-86
2021/10/19 03:41:21;;;;;;;;;;;;;;;;;;5074656;28;19920;-85
2021/10/19 03:43:47;;;;;;;;;;;;;;;;;;5058343;28;19923;-85
2021/10/19 03:46:12;;;;;;;;;;;;;;;;;;5052113;28;20023;-85
2021/10/19 03:48:38;;;;;;;;;;;;;;;;;;5071280;28;20046;-85
2021/10/19 03:51:03;;;;;;;;;;;;;;;;;;5088269;28;19912;-86
2021/10/19 03:53:28;;;;;;;;;;;;;;;;;;5062855;28;19912;-85
2021/10/19 03:55:55;;;;;;;;;;;;;;;;;;5053484;28;19923;-84
2021/10/19 03:58:21;;;;;;;;;;;;;;;;;;5056441;28;20035;-82
2021/10/19 04:00:47;;;;;;;;;;;;;;;;;;5041166;28;20015;-83
2021/10/19 04:03:12;;;;;;;;;;;;;;;;;;5054396;28;19924;-83
2021/10/19 04:05:38;;;;;;;;;;;;;;;;;;5041745;28;19962;-83
2021/10/19 04:08:03;;;;;;;;;;;;;;;;;;5054928;28;19912;-83
2021/10/19 04:10:28;;;;;;;;;;;;;;;;;;5068649;28;19917;-84
2021/10/19 04:12:54;;;;;;;;;;;;;;;;;;5068509;28;19912;-86
2021/10/19 04:15:19;;;;;;;;;;;;;;;;;;5090400;28;19912;-84
2021/10/19 04:17:45;;;;;;;;;;;;;;;;;;5071619;28;19928;-85
2021/10/19 04:20:10;;;;;;;;;;;;;;;;;;5063904;28;19920;-85
2021/10/19 04:22:36;;;;;;;;;;;;;;;;;;5057535;28;19970;-84
2021/10/19 04:25:01;;;;;;;;;;;;;;;;;;5054055;28;19917;-84
2021/10/19 04:27:26;;;;;;;;;;;;;;;;;;5070238;28;19916;-85
2021/10/19 04:30:16;;;;;;;;;;;;;;;;;;5067669;28;20386;-85
2021/10/19 04:32:43;;;;;;;;;;;;;;;;;;5073654;28;20393;-82
2021/10/19 04:35:09;;;;;;;;;;;;;;;;;;5073735;28;19912;-82
2021/10/19 04:37:35;;;;;;;;;;;;;;;;;;5074004;28;19947;-82
2021/10/19 04:40:00;;;;;;;;;;;;;;;;;;5057343;28;20374;-83
2021/10/19 04:42:28;;;;;;;;;;;;;;;;;;5073324;28;19917;-84
2021/10/19 04:44:54;;;;;;;;;;;;;;;;;;5053523;28;19913;-84
2021/10/19 04:47:19;;;;;;;;;;;;;;;;;;5070211;28;19983;-86
2021/10/19 04:49:45;;;;;;;;;;;;;;;;;;5056471;28;19916;-86
2021/10/19 04:52:11;;;;;;;;;;;;;;;;;;5074026;28;19962;-83
2021/10/19 04:54:37;;;;;;;;;;;;;;;;;;5065712;28;20034;-81
2021/10/19 04:57:02;;;;;;;;;;;;;;;;;;5060413;28;20383;-84
2021/10/19 04:59:31;;;;;;;;;;;;;;;;;;5060161;28;19928;-85
2021/10/19 05:01:56;;;;;;;;;;;;;;;;;;5060317;28;20037;-83
2021/10/19 05:04:23;;;;;;;;;;;;;;;;;;5080142;28;20409;-84
2021/10/19 05:06:48;;;;;;;;;;;;;;;;;;5053156;28;19928;-83
2021/10/19 05:09:14;;;;;;;;;;;;;;;;;;5081952;28;19928;-83
2021/10/19 05:11:39;;;;;;;;;;;;;;;;;;5070158;28;19952;-82
2021/10/19 05:14:04;;;;;;;;;;;;;;;;;;5055593;28;19962;-82
2021/10/19 05:16:30;;;;;;;;;;;;;;;;;;5057306;28;19962;-84
2021/10/19 05:18:55;;;;;;;;;;;;;;;;;;5056723;28;19944;-84
2021/10/19 05:21:21;;;;;;;;;;;;;;;;;;5057639;28;19917;-84
2021/10/19 05:23:46;;;;;;;;;;;;;;;;;;5051923;28;19915;-83
2021/10/19 05:26:15;;;;;;;;;;;;;;;;;;5059242;28;19915;-84
2021/10/19 05:28:40;;;;;;;;;;;;;;;;;;5076032;28;19935;-83
2021/10/19 05:31:06;;;;;;;;;;;;;;;;;;5077039;28;20381;-83
2021/10/19 05:33:31;;;;;;;;;;;;;;;;;;5073409;28;19920;-83
2021/10/19 05:35:56;;;;;;;;;;;;;;;;;;5074279;28;20316;-83
2021/10/19 05:38:22;;;;;;;;;;;;;;;;;;5070326;28;19959;-83
2021/10/19 05:40:48;;;;;;;;;;;;;;;;;;5087255;28;19967;-83
2021/10/19 05:43:13;;;;;;;;;;;;;;;;;;5052603;28;19973;-83
2021/10/19 05:45:39;;;;;;;;;;;;;;;;;;5066465;28;19913;-83
2021/10/19 05:48:04;;;;;;;;;;;;;;;;;;5044960;28;20015;-83
2021/10/19 05:50:31;;;;;;;;;;;;;;;;;;5085738;28;19922;-83
2021/10/19 05:52:56;;;;;;;;;;;;;;;;;;5056009;28;20003;-83
2021/10/19 05:55:21;;;;;;;;;;;;;;;;;;5066557;28;20011;-83
2021/10/19 05:57:47;;;;;;;;;;;;;;;;;;5066520;28;19924;-81
2021/10/19 06:00:12;;;;;;;;;;;;;;;;;;5064217;28;21044;-80
2021/10/19 06:02:37;;;;;;;;;;;;;;;;;;5081203;28;19928;-80
2021/10/19 06:05:03;;;;;;;;;;;;;;;;;;5083291;28;19918;-80
2021/10/19 06:07:28;;;;;;;;;;;;;;;;;;5082094;28;19935;-80
2021/10/19 06:09:54;;;;;;;;;;;;;;;;;;5081664;28;19916;-81
2021/10/19 06:12:19;;;;;;;;;;;;;;;;;;5100853;28;20353;-80
2021/10/19 06:14:45;;;;;;;;;;;;;;;;;;5082938;28;19924;-81
2021/10/19 06:17:10;;;;;;;;;;;;;;;;;;5083433;28;20012;-83
2021/10/19 06:19:35;;;;;;;;;;;;;;;;;;5065265;28;20357;-82
2021/10/19 06:22:01;;;;;;;;;;;;;;;;;;5067186;28;19916;-82
2021/10/19 06:24:27;;;;;;;;;;;;;;;;;;5065757;28;19932;-82
2021/10/19 06:26:52;;;;;;;;;;;;;;;;;;5054351;28;19919;-82
2021/10/19 06:29:18;;;;;;;;;;;;;;;;;;5082819;28;19916;-82
2021/10/19 06:31:43;;;;;;;;;;;;;;;;;;5048141;28;19912;-82
2021/10/19 06:34:08;;;;;;;;;;;;;;;;;;5048139;28;19970;-83
2021/10/19 06:36:34;;;;;;;;;;;;;;;;;;5068332;28;19981;-82
2021/10/19 06:38:59;;;;;;;;;;;;;;;;;;5067012;28;20401;-81
2021/10/19 06:41:24;;;;;;;;;;;;;;;;;;5081906;28;19964;-83
2021/10/19 06:43:50;;;;;;;;;;;;;;;;;;5070805;28;19916;-82
2021/10/19 06:46:15;;;;;;;;;;;;;;;;;;5067222;28;20568;-82
2021/10/19 06:48:40;;;;;;;;;;;;;;;;;;5081669;28;19924;-82
2021/10/19 06:51:06;;;;;;;;;;;;;;;;;;5067277;28;19951;-82
2021/10/19 06:53:34;;;;;;;;;;;;;;;;;;5067248;28;19920;-81
2021/10/19 06:56:00;;;;;;;;;;;;;;;;;;5065651;28;20258;-82
2021/10/19 06:58:25;;;;;;;;;;;;;;;;;;5053969;28;19995;-82
2021/10/19 07:00:53;;;;;;;;;;;;;;;;;;5046578;28;20465;-82
2021/10/19 07:03:19;;;;;;;;;;;;;;;;;;5084558;28;19916;-82
2021/10/19 07:05:45;;;;;;;;;;;;;;;;;;5051504;28;19919;-81
2021/10/19 07:08:10;;;;;;;;;;;;;;;;;;5066194;28;19913;-81
2021/10/19 07:10:36;;;;;;;;;;;;;;;;;;5065863;28;19916;-81
2021/10/19 07:13:02;;;;;;;;;;;;;;;;;;5065870;28;19974;-82
2021/10/19 07:15:34;;;;;;;;;;;;;;;;;;5063512;28;19952;-82
2021/10/19 07:17:59;;;;;;;;;;;;;;;;;;5054877;28;19935;-82
2021/10/19 07:20:24;;;;;;;;;;;;;;;;;;5059219;28;19924;-81
2021/10/19 07:22:49;;;;;;;;;;;;;;;;;;5040567;28;19912;-87
2021/10/19 07:25:15;;;;;;;;;;;;;;;;;;5066257;28;19957;-91
2021/10/19 07:27:40;;;;;;;;;;;;;;;;;;5069651;28;19924;-87
2021/10/19 07:30:06;;;;;;;;;;;;;;;;;;5043959;28;20005;-90
2021/10/19 07:32:31;;;;;;;;;;;;;;;;;;5071634;28;19920;-83
2021/10/19 07:34:56;;;;;;;;;;;;;;;;;;5046793;28;20019;-86
2021/10/19 07:37:22;;;;;;;;;;;;;;;;;;5042185;28;19919;-84
2021/10/19 07:39:47;;;;;;;;;;;;;;;;;;5067262;28;20387;-84
2021/10/19 07:42:12;;;;;;;;;;;;;;;;;;5041763;28;20422;-84
2021/10/19 07:44:38;;;;;;;;;;;;;;;;;;5041324;28;19921;-84
2021/10/19 07:47:03;;;;;;;;;;;;;;;;;;5065419;28;19922;-80
2021/10/19 07:49:28;;;;;;;;;;;;;;;;;;5082504;28;20298;-80
2021/10/19 07:51:54;;;;;;;;;;;;;;;;;;5082347;28;19975;-80
2021/10/19 07:54:19;;;;;;;;;;;;;;;;;;5071761;28;19912;-80
2021/10/19 07:56:44;;;;;;;;;;;;;;;;;;5065898;28;19999;-80
2021/10/19 07:59:10;;;;;;;;;;;;;;;;;;5080965;28;20263;-80
2021/10/19 08:01:36;;;;;;;;;;;;;;;;;;5082238;28;19966;-79
2021/10/19 08:04:01;;;;;;;;;;;;;;;;;;5082247;28;19985;-79
2021/10/19 08:06:27;;;;;;;;;;;;;;;;;;5065348;28;20337;-79
2021/10/19 08:08:52;;;;;;;;;;;;;;;;;;5052416;28;19924;-79
2021/10/19 08:11:18;;;;;;;;;;;;;;;;;;5083139;28;19923;-79
2021/10/19 08:13:43;;;;;;;;;;;;;;;;;;5065574;28;19939;-80
2021/10/19 08:16:08;;;;;;;;;;;;;;;;;;5066702;28;19929;-81
2021/10/19 08:18:34;;;;;;;;;;;;;;;;;;5081700;28;19920;-81
2021/10/19 08:20:59;;;;;;;;;;;;;;;;;;5080817;28;19935;-82
2021/10/19 08:23:25;;;;;;;;;;;;;;;;;;5045192;28;19982;-82
2021/10/19 08:25:50;;;;;;;;;;;;;;;;;;5081169;28;19912;-81
2021/10/19 08:28:23;;;;;;;;;;;;;;;;;;5064216;28;19924;-82
2021/10/19 08:30:48;;;;;;;;;;;;;;;;;;5048436;28;20412;-82
2021/10/19 08:33:14;;;;;;;;;;;;;;;;;;5065682;28;19955;-81
2021/10/19 08:35:39;;;;;;;;;;;;;;;;;;5069527;28;20027;-82
2021/10/19 08:38:05;;;;;;;;;;;;;;;;;;5065722;28;19926;-81
2021/10/19 08:40:30;;;;;;;;;;;;;;;;;;5080242;28;19923;-81
2021/10/19 08:42:55;;;;;;;;;;;;;;;;;;5065408;28;19917;-81
2021/10/19 08:45:21;;;;;;;;;;;;;;;;;;5083014;28;19924;-81
2021/10/19 08:47:46;;;;;;;;;;;;;;;;;;5081229;28;19982;-81
2021/10/19 08:50:12;;;;;;;;;;;;;;;;;;5081786;28;19921;-81
2021/10/19 08:52:38;;;;;;;;;;;;;;;;;;5066343;28;20060;-81
2021/10/19 08:55:03;;;;;;;;;;;;;;;;;;5067356;28;20003;-85
2021/10/19 08:57:29;;;;;;;;;;;;;;;;;;5054441;28;20282;-86
2021/10/19 08:59:54;;;;;;;;;;;;;;;;;;5071103;28;19920;-88
2021/10/19 09:02:19;;;;;;;;;;;;;;;;;;5074298;28;19986;-87
2021/10/19 09:04:45;;;;;;;;;;;;;;;;;;5053195;28;19924;-88
2021/10/19 09:07:10;;;;;;;;;;;;;;;;;;5039046;28;19936;-88
2021/10/19 09:09:35;;;;;;;;;;;;;;;;;;5046336;28;19939;-88
2021/10/19 09:12:01;;;;;;;;;;;;;;;;;;5071913;28;19916;-88
2021/10/19 09:14:33;;;;;;;;;;;;;;;;;;5066966;28;19920;-90
2021/10/19 09:17:00;;;;;;;;;;;;;;;;;;5048687;28;20066;-87
2021/10/19 09:19:25;;;;;;;;;;;;;;;;;;5053784;28;20378;-88
2021/10/19 09:21:55;;;;;;;;;;;;;;;;;;5040262;28;19923;-88
2021/10/19 09:24:20;;;;;;;;;;;;;;;;;;5079963;28;20255;-86
2021/10/19 09:26:51;;;;;;;;;;;;;;;;;;5083578;28;19923;-86
2021/10/19 09:29:17;;;;;;;;;;;;;;;;;;5064260;28;20346;-86
2021/10/19 09:31:42;;;;;;;;;;;;;;;;;;5040378;28;20029;-87
2021/10/19 09:34:11;;;;;;;;;;;;;;;;;;5046418;28;20006;-84
2021/10/19 09:36:36;;;;;;;;;;;;;;;;;;5102216;27;19920;-83
2021/10/19 09:39:02;;;;;;;;;;;;;;;;;;5069176;28;19926;-82
2021/10/19 09:41:40;;;;;;;;;;;;;;;;;;5087905;28;19938;-88
2021/10/19 09:44:09;;;;;;;;;;;;;;;;;;5056297;28;20346;-83
2021/10/19 09:46:34;;;;;;;;;;;;;;;;;;5057897;28;20451;-83
2021/10/19 09:48:59;;;;;;;;;;;;;;;;;;5044187;28;19928;-83
2021/10/19 09:51:25;;;;;;;;;;;;;;;;;;5048631;28;19920;-83
2021/10/19 09:53:50;;;;;;;;;;;;;;;;;;5067277;28;19955;-84
2021/10/19 09:56:16;;;;;;;;;;;;;;;;;;5043929;28;19928;-84
2021/10/19 09:58:41;;;;;;;;;;;;;;;;;;5072183;28;19935;-84
2021/10/19 10:01:10;;;;;;;;;;;;;;;;;;5070520;28;19927;-84
2021/10/19 10:03:37;;;;;;;;;;;;;;;;;;5070842;28;20433;-85
2021/10/19 10:06:04;;;;;;;;;;;;;;;;;;5054860;28;20017;-85
2021/10/19 10:08:29;;;;;;;;;;;;;;;;;;5072639;28;19916;-85
2021/10/19 10:10:55;;;;;;;;;;;;;;;;;;5072938;28;19913;-85
2021/10/19 10:13:20;;;;;;;;;;;;;;;;;;5073505;28;19935;-85
2021/10/19 10:15:45;;;;;;;;;;;;;;;;;;5059263;28;19922;-84
2021/10/19 10:18:12;;;;;;;;;;;;;;;;;;5071637;28;19947;-80
2021/10/19 10:20:37;;;;;;;;;;;;;;;;;;5075860;28;19924;-80
2021/10/19 10:23:19;;;;;;;;;;;;;;;;;;5085091;28;20406;-84
2021/10/19 10:25:45;;;;;;;;;;;;;;;;;;5076045;28;19912;-80
2021/10/19 10:28:11;;;;;;;;;;;;;;;;;;5055260;28;19919;-81
2021/10/19 10:30:37;;;;;;;;;;;;;;;;;;5055787;28;19921;-81
2021/10/19 10:33:06;;;;;;;;;;;;;;;;;;5056197;28;19975;-81
2021/10/19 10:35:33;;;;;;;;;;;;;;;;;;5040155;28;19920;-81
2021/10/19 10:37:58;;;;;;;;;;;;;;;;;;5038849;28;19913;-81
2021/10/19 10:40:27;;;;;;;;;;;;;;;;;;5069102;28;19919;-81
2021/10/19 10:42:53;;;;;;;;;;;;;;;;;;5076586;28;19922;-82
2021/10/19 10:45:19;;;;;;;;;;;;;;;;;;5077263;28;19917;-81
2021/10/19 10:47:46;;;;;;;;;;;;;;;;;;5055720;28;19923;-82
2021/10/19 10:50:11;;;;;;;;;;;;;;;;;;5052675;28;19920;-82
2021/10/19 10:52:36;;;;;;;;;;;;;;;;;;5056357;28;19976;-82
2021/10/19 10:55:02;;;;;;;;;;;;;;;;;;5050656;28;19922;-82
2021/10/19 10:57:27;;;;;;;;;;;;;;;;;;5074997;28;19923;-82
2021/10/19 10:59:53;;;;;;;;;;;;;;;;;;5069124;28;20370;-84
2021/10/19 11:02:18;;;;;;;;;;;;;;;;;;5072417;28;19987;-83
2021/10/19 11:04:50;;;;;;;;;;;;;;;;;;5082693;28;19922;-84
2021/10/19 11:07:29;;;;;;;;;;;;;;;;;;5070178;28;19916;-83
2021/10/19 11:09:55;;;;;;;;;;;;;;;;;;5049964;28;20014;-84
2021/10/19 11:12:20;;;;;;;;;;;;;;;;;;5041782;28;20020;-85
2021/10/19 11:14:46;;;;;;;;;;;;;;;;;;5058372;28;19916;-84
2021/10/19 11:17:12;;;;;;;;;;;;;;;;;;5055388;28;19928;-84
2021/10/19 11:19:37;;;;;;;;;;;;;;;;;;5054458;28;20011;-84
2021/10/19 11:22:03;;;;;;;;;;;;;;;;;;5063089;28;19920;-84
2021/10/19 11:24:29;;;;;;;;;;;;;;;;;;5074328;28;19944;-84
2021/10/19 11:26:55;;;;;;;;;;;;;;;;;;5069934;28;20330;-83
2021/10/19 11:29:20;;;;;;;;;;;;;;;;;;5038310;28;19962;-84
2021/10/19 11:31:45;;;;;;;;;;;;;;;;;;5063621;28;20277;-83
2021/10/19 11:34:11;;;;;;;;;;;;;;;;;;5053599;28;19960;-83
2021/10/19 11:36:36;;;;;;;;;;;;;;;;;;5055376;28;19920;-82
2021/10/19 11:39:04;;;;;;;;;;;;;;;;;;5055141;28;19931;-83
2021/10/19 11:41:30;;;;;;;;;;;;;;;;;;5063527;28;19942;-84
2021/10/19 11:43:57;;;;;;;;;;;;;;;;;;5074720;28;20392;-83
2021/10/19 11:46:23;;;;;;;;;;;;;;;;;;5073862;28;19916;-82
2021/10/19 11:48:49;;;;;;;;;;;;;;;;;;5054053;28;19920;-83
2021/10/19 11:51:15;;;;;;;;;;;;;;;;;;5054085;28;20413;-83
2021/10/19 11:53:47;;;;;;;;;;;;;;;;;;5045004;28;19913;-83
2021/10/19 11:56:13;;;;;;;;;;;;;;;;;;5053916;28;19916;-83
2021/10/19 11:58:51;;;;;;;;;;;;;;;;;;5038903;28;20003;-83
2021/10/19 12:01:17;;;;;;;;;;;;;;;;;;5062973;28;19925;-83
2021/10/19 12:03:42;;;;;;;;;;;;;;;;;;5094668;28;19942;-83
2021/10/19 12:06:11;;;;;;;;;;;;;;;;;;5073755;28;19953;-83
2021/10/19 12:08:36;;;;;;;;;;;;;;;;;;5076110;28;20441;-83
2021/10/19 12:11:08;;;;;;;;;;;;;;;;;;5066963;28;19997;-83
2021/10/19 12:13:33;;;;;;;;;;;;;;;;;;5056924;28;19920;-83
2021/10/19 12:15:59;;;;;;;;;;;;;;;;;;5070217;28;19920;-83
2021/10/19 12:18:24;;;;;;;;;;;;;;;;;;5068381;28;20436;-82
2021/10/19 12:20:49;;;;;;;;;;;;;;;;;;5049043;28;19912;-83
2021/10/19 12:23:16;;;;;;;;;;;;;;;;;;5078793;28;19916;-83
2021/10/19 12:25:44;;;;;;;;;;;;;;;;;;5071800;28;19923;-84
2021/10/19 12:28:20;;;;;;;;;;;;;;;;;;5071504;28;19919;-83
2021/10/19 12:30:47;;;;;;;;;;;;;;;;;;5071578;28;19921;-83
2021/10/19 12:33:16;;;;;;;;;;;;;;;;;;5043232;28;19916;-81
2021/10/19 12:35:51;;;;;;;;;;;;;;;;;;5059516;28;20336;-82
2021/10/19 12:38:16;;;;;;;;;;;;;;;;;;5091183;28;19920;-82
2021/10/19 12:40:43;;;;;;;;;;;;;;;;;;5066242;28;19917;-82
2021/10/19 12:43:08;;;;;;;;;;;;;;;;;;5056181;28;19916;-83
2021/10/19 12:45:34;;;;;;;;;;;;;;;;;;5045942;28;20424;-81
2021/10/19 12:48:03;;;;;;;;;;;;;;;;;;5064942;28;19959;-82
2021/10/19 12:50:28;;;;;;;;;;;;;;;;;;5073502;28;19930;-82
2021/10/19 12:52:54;;;;;;;;;;;;;;;;;;5050024;28;19917;-82
2021/10/19 12:55:19;;;;;;;;;;;;;;;;;;5050763;28;19923;-82
2021/10/19 12:57:44;;;;;;;;;;;;;;;;;;5053489;28;19913;-82
2021/10/19 13:00:10;;;;;;;;;;;;;;;;;;5053290;28;19917;-82
2021/10/19 13:02:35;;;;;;;;;;;;;;;;;;5062748;28;19916;-83
2021/10/19 13:05:00;;;;;;;;;;;;;;;;;;5048772;28;19921;-83
2021/10/19 13:07:26;;;;;;;;;;;;;;;;;;5073955;28;19916;-82
2021/10/19 13:09:51;;;;;;;;;;;;;;;;;;5048146;28;19943;-82
2021/10/19 13:12:17;;;;;;;;;;;;;;;;;;5073021;28;19955;-82
2021/10/19 13:14:42;;;;;;;;;;;;;;;;;;5057419;28;19924;-81
2021/10/19 13:17:07;;;;;;;;;;;;;;;;;;5056469;28;20382;-82
2021/10/19 13:19:33;;;;;;;;;;;;;;;;;;5068010;28;20309;-82
2021/10/19 13:21:58;;;;;;;;;;;;;;;;;;5057289;28;19920;-82
2021/10/19 13:24:23;;;;;;;;;;;;;;;;;;5056727;28;19916;-82
2021/10/19 13:26:49;;;;;;;;;;;;;;;;;;5073708;28;20305;-82
2021/10/19 13:29:14;;;;;;;;;;;;;;;;;;5092406;28;20313;-82
2021/10/19 13:31:40;;;;;;;;;;;;;;;;;;5056951;28;20020;-82
2021/10/19 13:34:06;;;;;;;;;;;;;;;;;;5066491;28;19938;-82
2021/10/19 13:36:31;;;;;;;;;;;;;;;;;;5060063;28;19920;-82
2021/10/19 13:38:56;;;;;;;;;;;;;;;;;;5060109;28;20293;-82
2021/10/19 13:41:22;;;;;;;;;;;;;;;;;;5052899;28;20413;-82
2021/10/19 13:43:47;;;;;;;;;;;;;;;;;;5056743;28;19912;-83
2021/10/19 13:46:12;;;;;;;;;;;;;;;;;;5071063;28;19919;-83
2021/10/19 13:48:38;;;;;;;;;;;;;;;;;;5076682;28;19920;-83
2021/10/19 13:51:04;;;;;;;;;;;;;;;;;;5072846;28;20344;-83
2021/10/19 13:53:29;;;;;;;;;;;;;;;;;;5054940;28;19916;-83
2021/10/19 13:55:54;;;;;;;;;;;;;;;;;;5073701;28;20370;-82
2021/10/19 13:58:19;;;;;;;;;;;;;;;;;;5056161;28;19912;-83
2021/10/19 14:00:45;;;;;;;;;;;;;;;;;;5055998;28;19997;-82
2021/10/19 14:03:10;;;;;;;;;;;;;;;;;;5040008;28;20058;-82
2021/10/19 14:05:37;;;;;;;;;;;;;;;;;;5039870;28;19913;-83
2021/10/19 14:08:09;;;;;;;;;;;;;;;;;;5075124;28;20029;-82
2021/10/19 14:10:34;;;;;;;;;;;;;;;;;;5075698;28;19958;-83
2021/10/19 14:13:00;;;;;;;;;;;;;;;;;;5076784;28;19916;-83
2021/10/19 14:15:28;;;;;;;;;;;;;;;;;;5057459;28;19985;-83
2021/10/19 14:17:53;;;;;;;;;;;;;;;;;;5039699;28;19920;-83
2021/10/19 14:20:18;;;;;;;;;;;;;;;;;;5055173;28;19917;-83
2021/10/19 14:22:44;;;;;;;;;;;;;;;;;;5053493;28;19931;-83
2021/10/19 14:25:09;;;;;;;;;;;;;;;;;;5064522;28;20375;-82
2021/10/19 14:27:34;;;;;;;;;;;;;;;;;;5058834;28;20392;-83
2021/10/19 14:29:59;;;;;;;;;;;;;;;;;;5054542;28;19959;-83
2021/10/19 14:32:25;;;;;;;;;;;;;;;;;;5055890;28;19916;-83
2021/10/19 14:34:50;;;;;;;;;;;;;;;;;;5072470;28;19912;-83
2021/10/19 14:37:16;;;;;;;;;;;;;;;;;;5089585;28;19916;-84
2021/10/19 14:39:41;;;;;;;;;;;;;;;;;;5063511;28;20345;-83
2021/10/19 14:42:07;;;;;;;;;;;;;;;;;;5054843;28;19924;-84
2021/10/19 14:44:32;;;;;;;;;;;;;;;;;;5038790;28;20011;-84
2021/10/19 14:46:57;;;;;;;;;;;;;;;;;;5055477;28;19960;-83
2021/10/19 14:49:23;;;;;;;;;;;;;;;;;;5072062;28;19921;-83
2021/10/19 14:51:48;;;;;;;;;;;;;;;;;;5038766;28;20366;-82
2021/10/19 14:54:14;;;;;;;;;;;;;;;;;;5066694;28;19919;-82
2021/10/19 14:56:39;;;;;;;;;;;;;;;;;;5054166;28;19923;-82
2021/10/19 14:59:05;;;;;;;;;;;;;;;;;;5054634;28;19916;-82
2021/10/19 15:01:31;;;;;;;;;;;;;;;;;;5073347;28;20377;-83
2021/10/19 15:03:56;;;;;;;;;;;;;;;;;;5057506;28;19965;-82
2021/10/19 15:06:22;;;;;;;;;;;;;;;;;;5072455;28;19978;-81
2021/10/19 15:08:47;;;;;;;;;;;;;;;;;;5055891;28;19971;-82
2021/10/19 15:11:12;;;;;;;;;;;;;;;;;;5074467;28;19920;-83
2021/10/19 15:13:37;;;;;;;;;;;;;;;;;;5071041;28;20263;-83
2021/10/19 15:16:03;;;;;;;;;;;;;;;;;;5054126;28;19913;-82
2021/10/19 15:18:28;;;;;;;;;;;;;;;;;;5055971;28;20409;-82
2021/10/19 15:20:56;;;;;;;;;;;;;;;;;;5057223;28;20010;-83
2021/10/19 15:23:21;;;;;;;;;;;;;;;;;;5073876;28;19974;-82
2021/10/19 15:25:46;;;;;;;;;;;;;;;;;;5056811;28;20330;-83
2021/10/19 15:28:11;;;;;;;;;;;;;;;;;;5055052;28;19917;-82
2021/10/19 15:30:37;;;;;;;;;;;;;;;;;;5057026;28;19920;-83
2021/10/19 15:33:02;;;;;;;;;;;;;;;;;;5057309;28;19916;-86
2021/10/19 15:35:27;;;;;;;;;;;;;;;;;;5082740;28;19916;-86
2021/10/19 15:37:53;;;;;;;;;;;;;;;;;;5055567;28;19973;-86
2021/10/19 15:40:18;;;;;;;;;;;;;;;;;;5039048;28;19912;-85
2021/10/19 15:42:43;;;;;;;;;;;;;;;;;;5054286;28;19961;-86
2021/10/19 15:45:10;;;;;;;;;;;;;;;;;;5069913;28;19916;-87
2021/10/19 15:47:36;;;;;;;;;;;;;;;;;;5036608;28;19917;-86
2021/10/19 15:50:01;;;;;;;;;;;;;;;;;;5054392;28;20034;-86
2021/10/19 15:52:26;;;;;;;;;;;;;;;;;;5038045;28;20006;-87
2021/10/19 15:54:53;;;;;;;;;;;;;;;;;;5070863;28;20267;-86
2021/10/19 15:57:18;;;;;;;;;;;;;;;;;;5057897;28;19912;-86
2021/10/19 15:59:43;;;;;;;;;;;;;;;;;;5070723;28;19924;-86
2021/10/19 16:02:10;;;;;;;;;;;;;;;;;;5060668;28;20211;-86
2021/10/19 16:04:36;;;;;;;;;;;;;;;;;;5058009;28;20340;-86
2021/10/19 16:07:02;;;;;;;;;;;;;;;;;;5056431;28;19971;-86
2021/10/19 16:09:27;;;;;;;;;;;;;;;;;;5057873;28;20320;-87
2021/10/19 16:11:53;;;;;;;;;;;;;;;;;;5057628;28;19965;-86
2021/10/19 16:14:18;;;;;;;;;;;;;;;;;;5074241;28;19928;-86
2021/10/19 16:16:43;;;;;;;;;;;;;;;;;;5073814;28;20395;-86
2021/10/19 16:19:09;;;;;;;;;;;;;;;;;;5057377;28;20317;-86
2021/10/19 16:21:35;;;;;;;;;;;;;;;;;;5068191;28;20254;-85
2021/10/19 16:24:01;;;;;;;;;;;;;;;;;;5071107;28;19917;-85
2021/10/19 16:26:27;;;;;;;;;;;;;;;;;;5070561;28;19916;-86
2021/10/19 16:28:52;;;;;;;;;;;;;;;;;;5069852;28;19923;-86
2021/10/19 16:31:19;;;;;;;;;;;;;;;;;;5087558;28;20054;-86
2021/10/19 16:33:44;;;;;;;;;;;;;;;;;;5067387;28;20370;-86
2021/10/19 16:36:09;;;;;;;;;;;;;;;;;;5087376;28;19913;-87